createdAt,value
2022-08-14T00:04:57.258Z,99.90
2022-08-14T00:10:49.399Z,99.90
2022-08-14T00:15:43.423Z,99.90
2022-08-14T00:20:46.747Z,99.90
2022-08-14T00:25:59.214Z,99.90
2022-08-14T00:31:09.827Z,99.90
2022-08-14T00:36:37.003Z,99.90
2022-08-14T00:41:34.642Z,99.90
2022-08-14T00:46:37.890Z,99.90
2022-08-14T00:51:41.089Z,99.90
2022-08-14T00:56:43.152Z,99.90
2022-08-14T01:01:46.132Z,99.90
2022-08-14T01:06:51.992Z,99.90
2022-08-14T01:12:03.198Z,99.90
2022-08-14T01:17:05.510Z,99.90
2022-08-14T01:22:12.758Z,99.90
2022-08-14T01:27:22.308Z,99.90
2022-08-14T01:32:26.129Z,99.90
2022-08-14T01:37:31.793Z,99.90
2022-08-14T01:42:36.122Z,99.90
2022-08-14T01:47:38.937Z,99.90
2022-08-14T01:52:59.208Z,99.90
2022-08-14T01:58:19.801Z,99.90
2022-08-14T02:03:30.845Z,99.90
2022-08-14T02:08:35.234Z,99.90
2022-08-14T02:13:38.124Z,99.90
2022-08-14T02:18:40.079Z,99.90
2022-08-14T02:23:43.095Z,99.90
2022-08-14T02:28:57.268Z,99.90
2022-08-14T02:34:04.188Z,99.90
2022-08-14T02:39:16.642Z,99.90
2022-08-14T02:44:29.534Z,99.90
2022-08-14T02:49:34.202Z,99.90
2022-08-14T02:54:37.260Z,99.90
2022-08-14T02:59:43.317Z,99.90
2022-08-14T03:04:45.240Z,99.90
2022-08-14T03:10:26.851Z,99.90
2022-08-14T03:15:14.298Z,99.90
2022-08-14T03:20:18.964Z,99.90
2022-08-14T03:25:24.450Z,99.90
2022-08-14T03:30:39.912Z,99.90
2022-08-14T03:36:00.074Z,99.90
2022-08-14T03:41:06.816Z,99.90
2022-08-14T03:46:52.336Z,99.90
2022-08-14T03:51:34.361Z,99.90
2022-08-14T03:56:44.499Z,99.90
2022-08-14T04:01:54.095Z,99.90
2022-08-14T04:07:03.678Z,99.90
2022-08-14T04:12:06.144Z,99.90
2022-08-14T04:17:10.136Z,99.90
2022-08-14T04:22:14.415Z,99.90
2022-08-14T04:27:18.537Z,99.90
2022-08-14T04:33:01.027Z,99.90
2022-08-14T04:38:07.829Z,99.90
2022-08-14T04:43:39.541Z,99.90
2022-08-14T04:48:43.707Z,99.90
2022-08-14T04:53:54.095Z,99.90
2022-08-14T04:59:02.107Z,99.90
2022-08-14T05:04:05.722Z,99.90
2022-08-14T05:09:13.981Z,99.90
2022-08-14T05:14:46.056Z,99.90
2022-08-14T05:19:44.564Z,99.90
2022-08-14T05:25:04.148Z,99.90
2022-08-14T05:30:06.951Z,99.90
2022-08-14T05:35:11.562Z,99.90
2022-08-14T05:40:13.409Z,99.90
2022-08-14T05:45:17.261Z,99.90
2022-08-14T05:50:19.905Z,99.90
2022-08-14T05:55:23.271Z,99.90
2022-08-14T06:00:39.147Z,99.90
2022-08-14T06:05:43.036Z,99.90
2022-08-14T06:10:45.640Z,99.90
2022-08-14T06:15:48.954Z,99.90
2022-08-14T06:20:51.038Z,99.90
2022-08-14T06:25:53.466Z,99.90
2022-08-14T06:30:55.755Z,99.90
2022-08-14T06:35:57.975Z,99.90
2022-08-14T06:40:59.771Z,99.90
2022-08-14T06:46:03.301Z,99.90
2022-08-14T06:51:05.156Z,99.90
2022-08-14T06:56:07.579Z,83.40
2022-08-14T07:01:28.160Z,54.20
2022-08-14T07:06:46.227Z,46.30
2022-08-14T07:11:48.912Z,41.60
2022-08-14T07:16:50.796Z,42.10
2022-08-14T07:21:52.605Z,39.40
2022-08-14T07:26:54.616Z,36.00
2022-08-14T07:31:56.464Z,34.60
2022-08-14T07:37:01.032Z,33.10
2022-08-14T07:42:03.323Z,34.30
2022-08-14T07:47:05.400Z,32.60
2022-08-14T07:52:08.239Z,35.00
2022-08-14T07:57:12.022Z,31.60
2022-08-14T08:02:17.326Z,30.50
2022-08-14T08:07:30.040Z,29.90
2022-08-14T08:12:34.476Z,32.10
2022-08-14T08:17:38.653Z,32.70
2022-08-14T08:22:43.437Z,29.40
2022-08-14T08:28:08.297Z,30.00
2022-08-14T08:33:10.729Z,30.70
2022-08-14T08:39:18.227Z,34.20
2022-08-14T08:43:46.716Z,33.30
2022-08-14T08:54:04.170Z,33.50
2022-08-14T08:59:31.380Z,32.10
2022-08-14T09:04:45.466Z,33.40
2022-08-14T09:09:59.196Z,35.80
2022-08-14T09:15:11.334Z,33.70
2022-08-14T09:20:29.648Z,38.40
2022-08-14T09:26:00.327Z,33.10
2022-08-14T09:30:57.754Z,34.10
2022-08-14T09:36:37.458Z,32.90
2022-08-14T09:42:20.691Z,33.30
2022-08-14T09:47:52.559Z,31.90
2022-08-14T09:52:57.137Z,35.20
2022-08-14T09:58:37.873Z,34.80
2022-08-14T10:04:00.033Z,35.70
2022-08-14T10:09:01.929Z,35.60
2022-08-14T10:14:21.091Z,38.00
2022-08-14T10:19:31.579Z,34.80
2022-08-14T10:24:46.278Z,37.90
2022-08-14T10:29:55.740Z,44.70
2022-08-14T10:35:23.076Z,48.80
2022-08-14T10:40:37.354Z,52.10
2022-08-14T10:45:42.071Z,53.70
2022-08-14T10:50:51.558Z,54.70
2022-08-14T10:55:58.940Z,55.60
2022-08-14T11:01:08.047Z,56.30
2022-08-14T11:06:22.505Z,55.20
2022-08-14T11:11:35.744Z,57.00
2022-08-14T11:16:41.731Z,59.00
2022-08-14T11:21:56.189Z,56.40
2022-08-14T11:27:01.019Z,57.20
2022-08-14T11:32:04.288Z,56.70
2022-08-14T11:37:21.523Z,55.80
2022-08-14T11:42:58.231Z,54.50
2022-08-14T11:48:13.140Z,55.30
2022-08-14T11:53:31.364Z,56.30
2022-08-14T11:58:35.991Z,57.80
2022-08-14T12:03:52.440Z,56.50
2022-08-14T12:08:59.749Z,56.30
2022-08-14T12:14:13.273Z,56.60
2022-08-14T12:19:33.422Z,56.70
2022-08-14T12:24:40.283Z,57.00
2022-08-14T12:29:53.990Z,57.20
2022-08-14T12:34:55.825Z,57.20
2022-08-14T12:40:19.627Z,57.20
2022-08-14T12:45:32.800Z,57.30
2022-08-14T12:50:40.292Z,57.00
2022-08-14T12:56:21.671Z,57.90
2022-08-14T13:01:20.532Z,57.70
2022-08-14T13:06:27.294Z,57.90
2022-08-14T13:11:59.275Z,56.70
2022-08-14T13:17:14.249Z,56.30
2022-08-14T13:22:28.887Z,57.40
2022-08-14T13:27:33.776Z,57.30
2022-08-14T13:32:44.832Z,58.10
2022-08-14T13:37:49.919Z,57.20
2022-08-14T13:42:57.195Z,57.80
2022-08-14T13:47:59.275Z,58.30
2022-08-14T13:53:03.754Z,58.00
2022-08-14T13:58:06.492Z,59.70
2022-08-14T14:03:14.056Z,57.00
2022-08-14T14:08:18.808Z,57.20
2022-08-14T14:13:44.706Z,55.20
2022-08-14T14:18:56.059Z,55.70
2022-08-14T14:23:58.159Z,56.10
2022-08-14T14:29:01.717Z,56.70
2022-08-14T14:34:07.721Z,56.70
2022-08-14T14:39:26.831Z,57.00
2022-08-14T14:44:34.495Z,57.90
2022-08-14T14:49:51.270Z,57.30
2022-08-14T14:54:58.576Z,56.10
2022-08-14T15:00:01.714Z,56.00
2022-08-14T15:05:05.434Z,56.60
2022-08-14T15:10:27.805Z,55.30
2022-08-14T15:15:33.341Z,55.70
2022-08-14T15:20:38.871Z,56.70
2022-08-14T15:25:41.763Z,56.30
2022-08-14T15:30:50.951Z,55.10
2022-08-14T15:35:59.777Z,55.90
2022-08-14T15:41:08.589Z,55.20
2022-08-14T15:46:10.776Z,55.30
2022-08-14T15:51:32.539Z,55.10
2022-08-14T15:56:43.099Z,56.30
2022-08-14T16:01:54.169Z,57.70
2022-08-14T16:06:56.841Z,58.20
2022-08-14T16:11:58.646Z,57.40
2022-08-14T16:17:02.576Z,59.30
2022-08-14T16:22:59.267Z,60.80
2022-08-14T16:27:39.228Z,63.20
2022-08-14T16:32:54.884Z,62.90
2022-08-14T16:37:59.708Z,63.50
2022-08-14T16:43:26.013Z,66.50
2022-08-14T16:48:54.940Z,69.10
2022-08-14T16:53:52.315Z,71.00
2022-08-14T16:59:09.298Z,71.10
2022-08-14T17:04:24.907Z,71.40
2022-08-14T17:09:48.650Z,74.00
2022-08-14T17:15:15.049Z,77.30
2022-08-14T17:20:53.504Z,81.70
2022-08-14T17:25:50.890Z,86.60
2022-08-14T17:31:02.863Z,90.00
2022-08-14T17:36:21.030Z,86.10
2022-08-14T17:41:27.290Z,90.80
2022-08-14T17:46:43.361Z,95.80
2022-08-14T17:52:07.497Z,99.40
2022-08-14T17:57:17.290Z,99.90
2022-08-14T18:02:31.473Z,99.90
2022-08-14T18:08:31.249Z,99.90
2022-08-14T18:12:58.917Z,99.90
2022-08-14T18:18:06.076Z,99.90
2022-08-14T18:23:10.434Z,99.90
2022-08-14T18:28:18.249Z,99.90
2022-08-14T18:33:51.761Z,99.90
2022-08-14T18:39:24.515Z,99.90
2022-08-14T18:44:48.239Z,99.90
2022-08-14T18:50:00.578Z,99.90
2022-08-14T18:55:23.220Z,99.90
2022-08-14T19:00:32.204Z,99.90
2022-08-14T19:05:40.984Z,99.90
2022-08-14T19:10:50.524Z,99.90
2022-08-14T19:16:08.467Z,99.90
2022-08-14T19:21:27.270Z,99.90
2022-08-14T19:26:35.663Z,99.90
2022-08-14T19:31:55.773Z,99.90
2022-08-14T19:37:09.850Z,99.90
2022-08-14T19:42:28.426Z,99.90
2022-08-14T19:47:57.796Z,99.90
2022-08-14T19:53:11.334Z,99.90
2022-08-14T19:58:13.923Z,99.90
2022-08-14T20:03:18.891Z,99.90
2022-08-14T20:11:00.191Z,99.90
2022-08-14T20:13:55.843Z,99.90
2022-08-14T20:19:19.051Z,99.90
2022-08-14T20:24:34.070Z,99.90
2022-08-14T20:29:41.620Z,99.90
2022-08-14T20:34:51.101Z,99.90
2022-08-14T20:39:54.808Z,99.90
2022-08-14T20:45:19.732Z,99.90
2022-08-14T20:50:28.954Z,99.90
2022-08-14T20:55:37.286Z,99.90
2022-08-14T21:00:52.362Z,99.90
2022-08-14T21:05:57.598Z,99.90
2022-08-14T21:11:02.377Z,99.90
2022-08-14T21:16:33.579Z,99.90
2022-08-14T21:21:41.608Z,99.90
2022-08-14T21:26:53.201Z,99.90
2022-08-14T21:32:20.565Z,99.90
2022-08-14T21:37:23.589Z,99.90
2022-08-14T21:42:28.080Z,99.90
2022-08-14T21:47:29.939Z,99.90
2022-08-14T21:52:51.208Z,99.90
2022-08-14T21:58:30.661Z,99.90
2022-08-14T22:03:23.406Z,99.90
2022-08-14T22:08:27.243Z,99.90
2022-08-14T22:13:32.229Z,99.90
2022-08-14T22:18:34.431Z,99.90
2022-08-14T22:23:38.809Z,99.90
2022-08-14T22:28:44.774Z,99.90
2022-08-14T22:33:49.850Z,99.90
2022-08-14T22:39:00.006Z,99.90
2022-08-14T22:44:06.571Z,99.90
2022-08-14T22:49:16.473Z,99.90
2022-08-14T22:54:51.927Z,99.90
2022-08-14T22:59:54.723Z,99.90
2022-08-14T23:04:56.772Z,99.90
2022-08-14T23:10:33.423Z,99.90
2022-08-14T23:15:24.190Z,99.90
2022-08-14T23:20:33.712Z,99.90
2022-08-14T23:26:00.631Z,99.90
2022-08-14T23:31:05.890Z,99.90
2022-08-14T23:36:31.536Z,99.90
2022-08-14T23:41:45.904Z,99.90
2022-08-14T23:46:52.643Z,99.90
2022-08-14T23:52:51.665Z,99.90
2022-08-14T23:57:22.066Z,99.90
